Time;durP1;ratioP1;P1;durP2;ratioP2;P2;SDS_P1;SDS_P2;PMS_P1;PMS_P2;Temp;Humidity;BMP_temperature;BMP_pressure;BME280_temperature;BME280_humidity;BME280_pressure;Samples;Min_cycle;Max_cycle;Signal;HPM_P1;HPM_P2
2022/11/11 00:01:16;;;;;;;;;;;16.70;93.70;;;;;;5093685;28;19908;-38
2022/11/11 00:03:42;;;;;;;;;;;16.80;93.70;;;;;;5093941;28;19908;-38
2022/11/11 00:06:08;;;;;;;;;;;16.70;93.60;;;;;;5093812;28;19965;-38
2022/11/11 00:08:34;;;;;;;;;;;16.70;93.70;;;;;;5093852;28;19928;-38
2022/11/11 00:11:00;;;;;;;;;;;16.70;93.70;;;;;;5093597;28;19908;-39
2022/11/11 00:13:26;;;;;;;;;;;16.70;93.70;;;;;;5093513;28;19912;-39
2022/11/11 00:15:52;;;;;;;;;;;16.70;93.70;;;;;;5093683;28;19939;-38
2022/11/11 00:26:30;;;;;;;;;;;16.70;93.60;;;;;;5093474;28;19989;-38
2022/11/11 00:28:55;;;;;;;;;;;16.70;93.60;;;;;;5093704;28;20297;-39
2022/11/11 00:31:21;;;;;;;;;;;16.70;93.60;;;;;;5093253;28;19908;-39
2022/11/11 00:33:46;;;;;;;;;;;16.70;93.60;;;;;;5093646;28;19923;-38
2022/11/11 00:36:12;;;;;;;;;;;16.70;93.60;;;;;;5093578;28;19912;-39
2022/11/11 00:38:51;;;;;;;;;;;16.70;93.60;;;;;;5093251;28;20479;-38
2022/11/11 00:41:18;;;;;;;;;;;16.70;93.60;;;;;;5096647;28;19958;-39
2022/11/11 00:43:44;;;;;;;;;;;16.70;93.60;;;;;;5096840;28;19947;-38
2022/11/11 00:51:38;;;;;;;;;;;16.70;93.70;;;;;;5096790;28;20285;-39
2022/11/11 00:54:04;;;;;;;;;;;16.70;93.60;;;;;;5096885;28;20312;-39
2022/11/11 00:56:30;;;;;;;;;;;16.70;93.60;;;;;;5096854;28;19922;-39
2022/11/11 00:58:55;;;;;;;;;;;16.60;93.60;;;;;;5096829;28;19913;-39
2022/11/11 01:01:21;;;;;;;;;;;16.60;93.70;;;;;;5096782;28;19954;-39
2022/11/11 01:03:46;;;;;;;;;;;16.60;93.70;;;;;;5096588;28;20306;-38
2022/11/11 01:06:12;;;;;;;;;;;16.60;93.70;;;;;;5096442;28;19915;-38
2022/11/11 01:08:38;;;;;;;;;;;16.60;93.70;;;;;;5096657;28;20064;-39
2022/11/11 01:11:10;;;;;;;;;;;16.60;93.70;;;;;;5096583;28;20317;-38
2022/11/11 01:13:35;;;;;;;;;;;16.60;93.70;;;;;;5096253;28;19919;-38
2022/11/11 01:16:06;;;;;;;;;;;16.60;93.80;;;;;;5096481;28;19912;-39
2022/11/11 01:18:31;;;;;;;;;;;16.60;93.80;;;;;;5096379;28;19912;-39
2022/11/11 01:21:01;;;;;;;;;;;16.70;93.80;;;;;;5096754;28;20277;-39
2022/11/11 01:23:26;;;;;;;;;;;16.60;93.80;;;;;;5096309;28;19908;-38
2022/11/11 01:25:52;;;;;;;;;;;16.70;93.80;;;;;;5096106;28;19961;-39
2022/11/11 01:28:18;;;;;;;;;;;16.60;93.80;;;;;;5095980;28;19931;-38
2022/11/11 01:30:43;;;;;;;;;;;16.60;93.90;;;;;;5095869;28;20002;-38
2022/11/11 01:33:09;;;;;;;;;;;16.70;93.90;;;;;;5095900;28;19908;-38
2022/11/11 01:35:38;;;;;;;;;;;16.70;93.90;;;;;;5096106;28;20395;-38
2022/11/11 01:38:04;;;;;;;;;;;16.60;93.90;;;;;;5096045;28;19912;-39
2022/11/11 01:40:29;;;;;;;;;;;16.60;93.90;;;;;;5095776;28;19908;-39
2022/11/11 01:43:04;;;;;;;;;;;16.60;94.00;;;;;;5095685;28;19908;-39
2022/11/11 01:45:43;;;;;;;;;;;16.60;94.00;;;;;;5095581;28;19915;-38
2022/11/11 01:50:57;;;;;;;;;;;16.60;94.00;;;;;;5095286;28;19934;-39
2022/11/11 01:53:22;;;;;;;;;;;16.60;94.00;;;;;;5077488;28;20362;-39
2022/11/11 01:55:48;;;;;;;;;;;16.70;94.00;;;;;;5095444;28;19912;-38
2022/11/11 01:58:16;;;;;;;;;;;16.70;94.00;;;;;;5095393;28;19908;-38
2022/11/11 02:00:42;;;;;;;;;;;16.60;94.00;;;;;;5095664;28;20270;-38
2022/11/11 02:03:08;;;;;;;;;;;16.60;94.00;;;;;;5095562;28;19908;-38
2022/11/11 02:05:44;;;;;;;;;;;16.60;94.00;;;;;;5095233;28;20416;-38
2022/11/11 02:08:32;;;;;;;;;;;16.60;94.00;;;;;;5095080;28;19927;-38
2022/11/11 02:11:03;;;;;;;;;;;16.60;94.00;;;;;;5095453;28;19908;-38
2022/11/11 02:16:14;;;;;;;;;;;16.60;94.00;;;;;;5095174;28;20015;-38
2022/11/11 02:18:40;;;;;;;;;;;16.60;94.00;;;;;;5095316;28;19952;-38
2022/11/11 02:21:06;;;;;;;;;;;16.60;94.10;;;;;;5094883;28;20370;-38
2022/11/11 02:23:34;;;;;;;;;;;16.60;94.10;;;;;;5094829;28;19908;-38
2022/11/11 02:26:01;;;;;;;;;;;16.60;94.10;;;;;;5095158;28;19939;-38
2022/11/11 02:28:26;;;;;;;;;;;16.60;94.10;;;;;;5095137;28;19908;-39
2022/11/11 02:30:52;;;;;;;;;;;16.60;94.10;;;;;;5095431;28;19935;-39
2022/11/11 02:33:17;;;;;;;;;;;16.60;94.10;;;;;;5094989;28;19915;-39
2022/11/11 02:35:45;;;;;;;;;;;16.60;94.10;;;;;;5094687;28;19924;-38
2022/11/11 02:38:11;;;;;;;;;;;16.60;94.10;;;;;;5094923;28;20347;-38
2022/11/11 02:43:25;;;;;;;;;;;16.50;94.10;;;;;;5094988;28;19915;-39
2022/11/11 02:45:50;;;;;;;;;;;16.60;94.10;;;;;;5094998;28;19908;-38
2022/11/11 02:48:16;;;;;;;;;;;16.60;94.10;;;;;;5076479;28;19930;-38
2022/11/11 02:50:41;;;;;;;;;;;16.60;94.10;;;;;;5094433;28;19915;-38
2022/11/11 02:53:07;;;;;;;;;;;16.60;94.10;;;;;;5076628;28;19959;-39
2022/11/11 02:55:32;;;;;;;;;;;16.60;94.10;;;;;;5094565;28;19919;-38
2022/11/11 02:57:58;;;;;;;;;;;16.50;94.20;;;;;;5094623;28;20313;-39
2022/11/11 03:00:23;;;;;;;;;;;16.50;94.20;;;;;;5094244;28;20347;-39
2022/11/11 03:02:49;;;;;;;;;;;16.60;94.20;;;;;;5094138;28;19965;-39
2022/11/11 03:05:14;;;;;;;;;;;16.60;94.20;;;;;;5094532;28;20018;-38
2022/11/11 03:07:40;;;;;;;;;;;16.60;94.20;;;;;;5094153;28;19920;-38
2022/11/11 03:10:06;;;;;;;;;;;16.60;94.30;;;;;;5094365;28;19987;-39
2022/11/11 03:12:31;;;;;;;;;;;16.60;94.30;;;;;;5094345;28;19955;-38
2022/11/11 03:14:56;;;;;;;;;;;16.60;94.30;;;;;;5094362;28;19916;-38
2022/11/11 03:17:40;;;;;;;;;;;16.60;94.30;;;;;;5094205;28;20259;-43
2022/11/11 03:23:07;;;;;;;;;;;16.50;94.30;;;;;;5094102;28;19958;-39
2022/11/11 03:25:39;;;;;;;;;;;16.50;94.30;;;;;;5094274;28;19970;-38
2022/11/11 03:28:11;;;;;;;;;;;16.50;94.30;;;;;;5094016;28;19963;-38
2022/11/11 03:30:38;;;;;;;;;;;16.50;94.30;;;;;;5094244;28;19918;-39
2022/11/11 03:33:03;;;;;;;;;;;16.50;94.20;;;;;;5094201;28;19912;-39
2022/11/11 03:35:29;;;;;;;;;;;16.60;94.30;;;;;;5094134;28;19957;-38
2022/11/11 03:40:38;;;;;;;;;;;16.50;94.30;;;;;;5093899;28;19914;-39
2022/11/11 03:43:04;;;;;;;;;;;16.50;94.30;;;;;;5093789;28;19908;-38
2022/11/11 03:45:29;;;;;;;;;;;16.50;94.50;;;;;;5093856;28;19908;-39
2022/11/11 03:47:55;;;;;;;;;;;16.50;94.30;;;;;;5076055;28;19908;-39
2022/11/11 03:50:21;;;;;;;;;;;16.50;94.30;;;;;;5093715;28;20017;-38
2022/11/11 03:52:46;;;;;;;;;;;16.50;94.30;;;;;;5093959;28;19908;-38
2022/11/11 03:55:12;;;;;;;;;;;16.50;94.30;;;;;;5093658;28;19918;-39
2022/11/11 03:57:42;;;;;;;;;;;16.50;94.30;;;;;;5093932;28;19912;-39
2022/11/11 04:00:08;;;;;;;;;;;16.50;94.30;;;;;;5093588;28;19934;-39
2022/11/11 04:10:46;;;;;;;;;;;16.50;94.30;;;;;;5093944;28;20443;-38
2022/11/11 04:16:05;;;;;;;;;;;16.50;94.30;;;;;;5097759;28;20026;-39
2022/11/11 04:23:59;;;;;;;;;;;16.50;94.30;;;;;;5097612;28;19915;-39
2022/11/11 04:26:24;;;;;;;;;;;16.50;94.30;;;;;;5097468;28;19912;-39
2022/11/11 04:31:34;;;;;;;;;;;16.50;94.20;;;;;;5097094;28;20015;-39
2022/11/11 04:33:59;;;;;;;;;;;16.50;94.20;;;;;;5096754;28;19967;-39
2022/11/11 04:36:25;;;;;;;;;;;16.40;94.20;;;;;;5096950;28;19959;-39
2022/11/11 04:41:34;;;;;;;;;;;16.40;94.20;;;;;;5096944;28;20353;-38
2022/11/11 04:46:44;;;;;;;;;;;16.40;94.20;;;;;;5097113;28;19958;-38
2022/11/11 04:49:09;;;;;;;;;;;16.40;94.20;;;;;;5096923;28;20297;-39
2022/11/11 04:54:19;;;;;;;;;;;16.40;94.20;;;;;;5096506;28;20330;-39
2022/11/11 04:56:48;;;;;;;;;;;16.40;94.30;;;;;;5096851;28;19912;-38
2022/11/11 04:59:18;;;;;;;;;;;16.40;94.30;;;;;;5096483;28;19915;-38
2022/11/11 05:04:28;;;;;;;;;;;16.40;94.30;;;;;;5096876;28;19914;-38
2022/11/11 05:09:38;;;;;;;;;;;16.40;94.20;;;;;;5096462;28;19923;-39
2022/11/11 05:12:03;;;;;;;;;;;16.40;94.20;;;;;;5096887;28;19908;-39
2022/11/11 05:22:42;;;;;;;;;;;16.40;94.20;;;;;;5096510;28;19916;-38
2022/11/11 05:25:24;;;;;;;;;;;16.40;94.20;;;;;;5095473;28;19908;-39
2022/11/11 05:27:50;;;;;;;;;;;16.40;94.20;;;;;;5096089;28;20365;-39
2022/11/11 05:30:16;;;;;;;;;;;16.40;94.20;;;;;;5095883;28;20274;-38
2022/11/11 05:32:41;;;;;;;;;;;16.40;94.20;;;;;;5096084;28;19912;-38
2022/11/11 05:35:07;;;;;;;;;;;16.40;94.30;;;;;;5095926;28;19923;-38
2022/11/11 05:37:33;;;;;;;;;;;16.30;94.20;;;;;;5095738;28;19920;-39
2022/11/11 05:39:58;;;;;;;;;;;16.40;94.30;;;;;;5095864;28;20275;-39
2022/11/11 05:42:24;;;;;;;;;;;16.40;94.20;;;;;;5095490;28;19909;-38
2022/11/11 05:44:49;;;;;;;;;;;16.40;94.20;;;;;;5095908;28;20422;-38
2022/11/11 05:47:15;;;;;;;;;;;16.40;94.20;;;;;;5095652;28;19916;-38
2022/11/11 05:49:40;;;;;;;;;;;16.40;94.20;;;;;;5095786;28;20374;-38
2022/11/11 05:52:06;;;;;;;;;;;16.40;94.20;;;;;;5095348;28;19952;-39
2022/11/11 05:54:31;;;;;;;;;;;16.30;94.20;;;;;;5095612;28;19913;-39
2022/11/11 05:56:57;;;;;;;;;;;16.30;94.20;;;;;;5095915;28;19923;-39
2022/11/11 05:59:23;;;;;;;;;;;16.30;94.20;;;;;;5095626;28;19914;-39
2022/11/11 06:01:48;;;;;;;;;;;16.30;94.20;;;;;;5095731;28;19915;-39
2022/11/11 06:04:13;;;;;;;;;;;16.30;94.30;;;;;;5095302;28;20259;-39
2022/11/11 06:06:39;;;;;;;;;;;16.30;94.30;;;;;;5095396;28;20006;-39
2022/11/11 06:09:05;;;;;;;;;;;16.30;94.30;;;;;;5095707;28;19959;-38
2022/11/11 06:11:31;;;;;;;;;;;16.30;94.20;;;;;;5095333;28;19996;-38
2022/11/11 06:13:56;;;;;;;;;;;16.30;94.20;;;;;;5095182;28;20351;-39
2022/11/11 06:16:22;;;;;;;;;;;16.30;94.20;;;;;;5095108;28;19959;-38
2022/11/11 06:18:48;;;;;;;;;;;16.30;94.20;;;;;;5094815;28;20361;-38
2022/11/11 06:21:13;;;;;;;;;;;16.30;94.30;;;;;;5094852;28;19908;-38
2022/11/11 06:23:39;;;;;;;;;;;16.30;94.30;;;;;;5094761;28;19953;-38
2022/11/11 06:26:14;;;;;;;;;;;16.30;94.30;;;;;;5094741;28;20351;-38
2022/11/11 06:28:46;;;;;;;;;;;16.30;94.30;;;;;;5094616;28;19912;-39
2022/11/11 06:31:13;;;;;;;;;;;16.30;94.30;;;;;;5095141;28;20045;-39
2022/11/11 06:33:39;;;;;;;;;;;16.30;94.30;;;;;;5094586;28;20363;-38
2022/11/11 06:36:05;;;;;;;;;;;16.30;94.30;;;;;;5094598;28;19912;-38
2022/11/11 06:38:31;;;;;;;;;;;16.30;94.50;;;;;;5093672;28;20367;-39
2022/11/11 06:40:57;;;;;;;;;;;16.30;94.30;;;;;;5094313;28;19912;-39
2022/11/11 06:43:23;;;;;;;;;;;16.30;94.30;;;;;;5094421;28;19915;-38
2022/11/11 06:45:49;;;;;;;;;;;16.30;94.30;;;;;;5094245;28;19908;-38
2022/11/11 06:48:14;;;;;;;;;;;16.30;94.30;;;;;;5094499;28;19908;-39
2022/11/11 06:50:40;;;;;;;;;;;16.30;94.30;;;;;;5094275;28;19931;-39
2022/11/11 06:53:06;;;;;;;;;;;16.30;94.30;;;;;;5094429;28;19915;-38
2022/11/11 06:55:33;;;;;;;;;;;16.30;94.40;;;;;;5094011;28;19921;-38
2022/11/11 06:58:05;;;;;;;;;;;16.30;94.30;;;;;;5093981;28;19919;-39
2022/11/11 07:00:31;;;;;;;;;;;16.30;94.30;;;;;;5094209;28;19961;-38
2022/11/11 07:02:57;;;;;;;;;;;16.30;94.40;;;;;;5094341;28;19961;-38
2022/11/11 07:05:22;;;;;;;;;;;16.20;94.30;;;;;;5091119;28;20015;-38
2022/11/11 07:07:47;;;;;;;;;;;16.30;94.40;;;;;;5081827;28;20326;-38
2022/11/11 07:10:14;;;;;;;;;;;16.30;94.60;;;;;;5101743;28;19919;-39
2022/11/11 07:12:40;;;;;;;;;;;16.30;94.50;;;;;;5107486;28;20270;-39
2022/11/11 07:15:06;;;;;;;;;;;16.30;94.50;;;;;;5093918;28;19919;-38
2022/11/11 07:17:31;;;;;;;;;;;16.20;94.50;;;;;;5093730;28;19913;-39
2022/11/11 07:19:56;;;;;;;;;;;16.20;94.50;;;;;;5094215;28;19912;-38
2022/11/11 07:22:22;;;;;;;;;;;16.20;94.50;;;;;;5093675;28;19908;-38
2022/11/11 07:24:47;;;;;;;;;;;16.20;94.50;;;;;;5076816;28;19912;-39
2022/11/11 07:27:13;;;;;;;;;;;16.30;94.60;;;;;;5094954;28;19919;-39
2022/11/11 07:29:38;;;;;;;;;;;16.20;94.60;;;;;;5081804;28;19934;-38
2022/11/11 07:32:04;;;;;;;;;;;16.20;94.70;;;;;;5093535;28;19912;-38
2022/11/11 07:34:29;;;;;;;;;;;16.20;94.80;;;;;;5093671;28;19919;-40
2022/11/11 07:36:55;;;;;;;;;;;16.30;94.90;;;;;;5093663;28;19912;-38
2022/11/11 07:39:21;;;;;;;;;;;16.30;94.90;;;;;;5093675;28;19945;-38
2022/11/11 07:41:46;;;;;;;;;;;16.30;95.00;;;;;;5093643;28;19912;-37
2022/11/11 07:44:12;;;;;;;;;;;16.30;95.00;;;;;;5093709;28;20355;-38
2022/11/11 07:46:37;;;;;;;;;;;16.30;95.00;;;;;;5093271;28;19908;-38
2022/11/11 07:49:02;;;;;;;;;;;16.30;95.00;;;;;;5095716;28;19908;-38
2022/11/11 07:51:28;;;;;;;;;;;16.30;95.10;;;;;;5097865;28;20258;-40
2022/11/11 07:53:53;;;;;;;;;;;16.30;95.00;;;;;;5097699;28;19965;-38
2022/11/11 07:56:19;;;;;;;;;;;16.30;95.10;;;;;;5099204;28;20370;-39
2022/11/11 07:58:44;;;;;;;;;;;16.30;95.00;;;;;;5084472;28;19908;-38
2022/11/11 08:01:10;;;;;;;;;;;16.30;95.00;;;;;;5096312;28;19912;-39
2022/11/11 08:03:48;;;;;;;;;;;16.30;95.10;;;;;;5100040;28;19912;-39
2022/11/11 08:06:17;;;;;;;;;;;16.30;95.10;;;;;;5118029;28;19959;-38
2022/11/11 08:08:42;;;;;;;;;;;16.30;95.20;;;;;;5096365;28;19989;-38
2022/11/11 08:11:08;;;;;;;;;;;16.30;95.30;;;;;;5094214;28;20350;-38
2022/11/11 08:13:39;;;;;;;;;;;16.30;95.20;;;;;;5096257;28;19931;-38
2022/11/11 08:16:14;;;;;;;;;;;16.30;95.20;;;;;;5095968;28;20359;-38
2022/11/11 08:18:40;;;;;;;;;;;16.30;95.20;;;;;;5077976;28;19915;-38
2022/11/11 08:21:06;;;;;;;;;;;16.30;95.10;;;;;;5097010;28;19908;-38
2022/11/11 08:23:31;;;;;;;;;;;16.30;95.10;;;;;;5079060;28;19908;-38
2022/11/11 08:26:01;;;;;;;;;;;16.30;95.10;;;;;;5106410;28;19923;-37
2022/11/11 08:28:27;;;;;;;;;;;16.30;95.00;;;;;;5097055;28;19995;-37
2022/11/11 08:30:53;;;;;;;;;;;16.30;95.00;;;;;;5097416;28;19908;-36
2022/11/11 08:33:18;;;;;;;;;;;16.30;94.90;;;;;;5094714;28;19912;-37
2022/11/11 08:35:44;;;;;;;;;;;16.30;94.90;;;;;;5094909;28;20351;-37
2022/11/11 08:38:09;;;;;;;;;;;16.30;94.90;;;;;;5096677;28;20343;-37
2022/11/11 08:40:35;;;;;;;;;;;16.30;94.90;;;;;;5094718;28;19958;-37
2022/11/11 08:43:00;;;;;;;;;;;16.30;94.80;;;;;;5093836;28;19947;-37
2022/11/11 08:45:26;;;;;;;;;;;16.30;94.80;;;;;;5095809;28;20366;-37
2022/11/11 08:47:51;;;;;;;;;;;16.30;94.70;;;;;;5096543;28;19962;-37
2022/11/11 08:50:17;;;;;;;;;;;16.30;94.70;;;;;;5096566;28;20002;-37
2022/11/11 08:52:47;;;;;;;;;;;16.30;94.70;;;;;;5096682;28;19915;-37
2022/11/11 08:55:12;;;;;;;;;;;16.30;94.70;;;;;;5076780;28;20059;-37
2022/11/11 08:57:37;;;;;;;;;;;16.30;94.60;;;;;;5089500;28;20003;-38
2022/11/11 09:00:04;;;;;;;;;;;16.30;94.60;;;;;;5073981;28;19912;-39
2022/11/11 09:02:29;;;;;;;;;;;16.30;94.60;;;;;;5095415;28;19912;-38
2022/11/11 09:04:55;;;;;;;;;;;16.30;94.50;;;;;;5104895;28;19912;-37
2022/11/11 09:07:20;;;;;;;;;;;16.30;94.50;;;;;;5101999;28;19926;-38
2022/11/11 09:09:49;;;;;;;;;;;16.30;94.50;;;;;;5096738;28;19919;-37
2022/11/11 09:12:14;;;;;;;;;;;16.30;94.50;;;;;;5092741;28;19959;-37
2022/11/11 09:14:40;;;;;;;;;;;16.30;94.50;;;;;;5096172;28;19951;-37
2022/11/11 09:17:05;;;;;;;;;;;16.30;94.40;;;;;;5093388;28;20281;-37
2022/11/11 09:19:31;;;;;;;;;;;16.30;94.40;;;;;;5085777;28;19912;-38
2022/11/11 09:21:56;;;;;;;;;;;16.30;94.40;;;;;;5091543;28;20328;-37
2022/11/11 09:24:22;;;;;;;;;;;16.30;94.30;;;;;;5091770;28;19927;-37
2022/11/11 09:26:48;;;;;;;;;;;16.30;94.30;;;;;;5095505;28;20401;-37
2022/11/11 09:29:13;;;;;;;;;;;16.30;94.30;;;;;;5093825;28;19916;-49
2022/11/11 09:31:39;;;;;;;;;;;16.30;94.30;;;;;;5075669;28;19931;-38
2022/11/11 09:34:05;;;;;;;;;;;16.30;94.20;;;;;;5113651;28;19916;-38
2022/11/11 09:36:31;;;;;;;;;;;16.30;94.20;;;;;;5095165;28;19916;-39
2022/11/11 09:38:57;;;;;;;;;;;16.30;94.20;;;;;;5073660;28;20340;-39
2022/11/11 09:41:22;;;;;;;;;;;16.30;94.20;;;;;;5096212;28;19926;-38
2022/11/11 09:43:58;;;;;;;;;;;16.40;94.20;;;;;;5115598;28;19907;-39
2022/11/11 09:46:36;;;;;;;;;;;16.30;94.10;;;;;;5090424;28;20337;-39
2022/11/11 09:49:13;;;;;;;;;;;16.30;94.10;;;;;;5101963;28;19912;-39
2022/11/11 09:52:00;;;;;;;;;;;16.30;94.10;;;;;;5094596;28;19973;-39
2022/11/11 09:54:46;;;;;;;;;;;16.30;94.10;;;;;;5088241;28;19923;-39
2022/11/11 09:57:20;;;;;;;;;;;16.30;94.10;;;;;;5112955;28;19919;-39
2022/11/11 09:59:51;;;;;;;;;;;16.30;94.10;;;;;;5095525;28;20006;-39
2022/11/11 10:02:18;;;;;;;;;;;16.40;94.10;;;;;;5106673;28;20255;-39
2022/11/11 10:04:51;;;;;;;;;;;16.40;94.10;;;;;;5113493;28;20371;-39
2022/11/11 10:07:35;;;;;;;;;;;16.40;94.10;;;;;;5092522;28;20278;-39
2022/11/11 10:10:05;;;;;;;;;;;16.40;94.00;;;;;;5106077;28;19916;-42
2022/11/11 10:12:41;;;;;;;;;;;16.40;94.00;;;;;;5097076;28;19965;-39
2022/11/11 10:15:13;;;;;;;;;;;16.40;94.00;;;;;;5093120;28;19920;-40
2022/11/11 10:17:53;;;;;;;;;;;16.40;94.00;;;;;;5089029;28;22220;-39
2022/11/11 10:20:24;;;;;;;;;;;16.40;94.00;;;;;;5093690;28;19913;-39
2022/11/11 10:23:12;;;;;;;;;;;16.40;94.00;;;;;;5092829;28;19913;-39
2022/11/11 10:25:41;;;;;;;;;;;16.30;94.00;;;;;;5084900;28;20378;-40
2022/11/11 10:28:10;;;;;;;;;;;16.40;94.00;;;;;;5093670;28;19935;-40
2022/11/11 10:30:36;;;;;;;;;;;16.40;94.00;;;;;;5091184;28;19918;-39
2022/11/11 10:33:03;;;;;;;;;;;16.40;94.00;;;;;;5109245;28;19995;-41
2022/11/11 10:35:29;;;;;;;;;;;16.40;94.00;;;;;;5094909;28;20014;-39
2022/11/11 10:38:07;;;;;;;;;;;16.40;94.00;;;;;;5094533;28;20379;-39
2022/11/11 10:40:35;;;;;;;;;;;16.40;94.00;;;;;;5094464;28;19909;-40
2022/11/11 10:43:00;;;;;;;;;;;16.40;93.90;;;;;;5094234;28;19916;-40
2022/11/11 10:45:38;;;;;;;;;;;16.40;93.90;;;;;;5094542;28;19909;-44
2022/11/11 10:48:06;;;;;;;;;;;16.40;93.90;;;;;;5094176;28;20008;-40
2022/11/11 10:50:36;;;;;;;;;;;16.40;93.90;;;;;;5094036;28;20381;-39
2022/11/11 10:53:10;;;;;;;;;;;16.40;93.90;;;;;;5094414;28;19908;-41
2022/11/11 10:55:42;;;;;;;;;;;16.40;93.90;;;;;;5105116;28;19961;-39
2022/11/11 10:58:15;;;;;;;;;;;16.40;93.90;;;;;;5114301;28;19968;-39
2022/11/11 11:00:42;;;;;;;;;;;16.40;93.90;;;;;;5095608;28;19924;-39
2022/11/11 11:03:22;;;;;;;;;;;16.40;93.90;;;;;;5094866;28;19923;-39
2022/11/11 11:05:52;;;;;;;;;;;16.40;93.90;;;;;;5103057;28;20362;-39
2022/11/11 11:08:21;;;;;;;;;;;16.40;93.90;;;;;;5077089;28;19924;-39
2022/11/11 11:10:52;;;;;;;;;;;16.40;94.00;;;;;;5093874;28;19927;-39
2022/11/11 11:13:26;;;;;;;;;;;16.40;94.00;;;;;;5093719;28;19912;-40
2022/11/11 11:15:56;;;;;;;;;;;16.40;94.00;;;;;;5095501;28;20354;-40
2022/11/11 11:18:23;;;;;;;;;;;16.40;94.00;;;;;;5097554;28;19920;-40
2022/11/11 11:20:54;;;;;;;;;;;16.40;94.00;;;;;;5101765;28;20012;-39
2022/11/11 11:23:34;;;;;;;;;;;16.40;94.00;;;;;;5106520;28;19915;-40
2022/11/11 11:26:01;;;;;;;;;;;16.40;94.20;;;;;;5109221;28;19951;-41
2022/11/11 11:28:27;;;;;;;;;;;16.40;94.00;;;;;;5096214;28;19928;-41
2022/11/11 11:31:00;;;;;;;;;;;16.30;94.00;;;;;;5092902;28;19912;-39
2022/11/11 11:33:25;;;;;;;;;;;16.40;94.00;;;;;;5089426;28;19916;-39
2022/11/11 11:35:51;;;;;;;;;;;16.30;94.00;;;;;;5083948;28;20351;-39
2022/11/11 11:38:17;;;;;;;;;;;16.30;94.00;;;;;;5095195;28;20094;-40
2022/11/11 11:40:55;;;;;;;;;;;16.40;94.00;;;;;;5100346;28;20316;-40
2022/11/11 11:43:44;;;;;;;;;;;16.40;94.00;;;;;;5090506;28;19920;-40
2022/11/11 11:46:18;;;;;;;;;;;16.40;94.00;;;;;;5093620;28;19935;-39
2022/11/11 11:48:47;;;;;;;;;;;16.40;93.90;;;;;;5091221;28;20008;-40
2022/11/11 11:51:32;;;;;;;;;;;16.40;93.90;;;;;;5092557;28;19912;-40
2022/11/11 11:54:11;;;;;;;;;;;16.40;93.90;;;;;;5073983;28;19993;-40
2022/11/11 11:56:57;;;;;;;;;;;16.40;93.90;;;;;;5093513;28;20283;-40
2022/11/11 11:59:29;;;;;;;;;;;16.40;93.90;;;;;;5089134;28;20417;-40
2022/11/11 12:02:13;;;;;;;;;;;16.40;93.90;;;;;;5092613;28;19908;-46
2022/11/11 12:04:57;;;;;;;;;;;16.40;93.90;;;;;;5091469;28;20278;-40
2022/11/11 12:07:44;;;;;;;;;;;16.40;93.90;;;;;;5092250;28;19923;-40
2022/11/11 12:10:19;;;;;;;;;;;16.40;93.90;;;;;;5093157;28;19913;-39
2022/11/11 12:12:51;;;;;;;;;;;16.40;93.90;;;;;;5104029;28;19914;-39
2022/11/11 12:15:30;;;;;;;;;;;16.40;93.90;;;;;;5068907;28;19923;-43
2022/11/11 12:17:55;;;;;;;;;;;16.40;93.90;;;;;;5090623;28;19920;-40
2022/11/11 12:20:33;;;;;;;;;;;16.40;93.80;;;;;;5094991;28;20003;-39
2022/11/11 12:23:23;;;;;;;;;;;16.40;93.80;;;;;;5108337;28;20026;-43
2022/11/11 12:25:57;;;;;;;;;;;16.40;93.80;;;;;;5072670;28;19920;-39
2022/11/11 12:28:34;;;;;;;;;;;16.40;93.80;;;;;;5077714;28;19908;-40
2022/11/11 12:31:11;;;;;;;;;;;16.40;93.80;;;;;;5089342;28;19912;-42
2022/11/11 12:33:37;;;;;;;;;;;16.40;93.80;;;;;;5078044;28;19912;-39
2022/11/11 12:36:28;;;;;;;;;;;16.40;93.80;;;;;;5095321;28;19945;-38
2022/11/11 12:38:54;;;;;;;;;;;16.40;93.80;;;;;;5107308;28;19912;-40
2022/11/11 12:41:28;;;;;;;;;;;16.40;93.80;;;;;;5094928;28;19908;-40
2022/11/11 12:44:07;;;;;;;;;;;16.40;93.80;;;;;;5094551;28;19964;-38
2022/11/11 12:46:35;;;;;;;;;;;16.40;93.80;;;;;;5095539;28;19912;-39
2022/11/11 12:49:19;;;;;;;;;;;16.40;93.80;;;;;;5094645;28;19912;-39
2022/11/11 12:51:55;;;;;;;;;;;16.40;94.10;;;;;;5100449;28;20317;-38
2022/11/11 12:54:30;;;;;;;;;;;16.40;93.80;;;;;;5116232;28;19916;-39
2022/11/11 12:56:59;;;;;;;;;;;16.40;93.80;;;;;;5095693;28;20006;-39
2022/11/11 12:59:43;;;;;;;;;;;16.40;93.80;;;;;;5077840;28;20359;-39
2022/11/11 13:02:23;;;;;;;;;;;16.40;93.80;;;;;;5098357;28;20351;-39
2022/11/11 13:05:00;;;;;;;;;;;16.40;93.80;;;;;;5090752;28;19990;-39
2022/11/11 13:07:35;;;;;;;;;;;16.40;93.80;;;;;;5091609;28;20460;-39
2022/11/11 13:10:18;;;;;;;;;;;16.40;93.80;;;;;;5116547;28;20002;-40
2022/11/11 13:12:53;;;;;;;;;;;16.40;93.80;;;;;;5115291;28;20368;-39
2022/11/11 13:15:22;;;;;;;;;;;16.30;93.80;;;;;;5092524;28;19986;-40
2022/11/11 13:17:48;;;;;;;;;;;16.40;93.80;;;;;;5099336;28;19927;-43
2022/11/11 13:20:22;;;;;;;;;;;16.40;93.80;;;;;;5083588;28;19909;-39
2022/11/11 13:22:49;;;;;;;;;;;16.40;93.80;;;;;;5077545;28;20363;-42
2022/11/11 13:25:21;;;;;;;;;;;16.40;93.80;;;;;;5074972;28;20383;-40
2022/11/11 13:27:54;;;;;;;;;;;16.40;93.70;;;;;;5093964;28;19995;-42
2022/11/11 13:30:24;;;;;;;;;;;16.40;93.70;;;;;;5093840;28;19931;-40
2022/11/11 13:32:50;;;;;;;;;;;16.30;93.70;;;;;;5093819;28;19954;-40
2022/11/11 13:35:34;;;;;;;;;;;16.30;93.70;;;;;;5093392;28;19920;-41
2022/11/11 13:38:00;;;;;;;;;;;16.30;93.70;;;;;;5093488;28;20362;-42
2022/11/11 13:40:34;;;;;;;;;;;16.40;93.70;;;;;;5094284;28;19915;-39
2022/11/11 13:43:00;;;;;;;;;;;16.40;93.70;;;;;;5095357;28;20283;-39
2022/11/11 13:45:33;;;;;;;;;;;16.40;93.70;;;;;;5095673;28;19934;-39
2022/11/11 13:47:58;;;;;;;;;;;16.40;93.70;;;;;;5095007;28;20244;-40
2022/11/11 13:50:31;;;;;;;;;;;16.30;93.70;;;;;;5095212;28;19952;-40
2022/11/11 13:52:59;;;;;;;;;;;16.40;93.80;;;;;;5095185;28;19923;-40
2022/11/11 13:55:41;;;;;;;;;;;16.40;93.80;;;;;;5094806;28;19918;-39
2022/11/11 13:58:17;;;;;;;;;;;16.30;94.00;;;;;;5095188;28;19965;-41
2022/11/11 14:00:43;;;;;;;;;;;16.30;93.80;;;;;;5094802;28;19908;-40
2022/11/11 14:03:21;;;;;;;;;;;16.30;93.80;;;;;;5094879;28;19909;-40
2022/11/11 14:05:46;;;;;;;;;;;16.30;93.90;;;;;;5094987;28;19908;-40
2022/11/11 14:08:30;;;;;;;;;;;16.30;93.90;;;;;;5094829;28;19920;-40
2022/11/11 14:10:58;;;;;;;;;;;16.30;93.90;;;;;;5094307;28;19908;-40
2022/11/11 14:13:31;;;;;;;;;;;16.30;93.90;;;;;;5094933;28;19916;-40
2022/11/11 14:15:57;;;;;;;;;;;16.30;93.90;;;;;;5094361;28;19919;-40
2022/11/11 14:18:22;;;;;;;;;;;16.30;93.90;;;;;;5076578;28;20014;-40
2022/11/11 14:20:49;;;;;;;;;;;16.30;93.90;;;;;;5094658;28;19908;-40
2022/11/11 14:23:17;;;;;;;;;;;16.30;93.90;;;;;;5076647;28;20312;-40
2022/11/11 14:25:43;;;;;;;;;;;16.30;94.00;;;;;;5094784;28;19908;-41
2022/11/11 14:28:22;;;;;;;;;;;16.30;93.90;;;;;;5094539;28;20316;-40
2022/11/11 14:30:48;;;;;;;;;;;16.30;94.00;;;;;;5094656;28;20289;-40
2022/11/11 14:33:13;;;;;;;;;;;16.30;94.20;;;;;;5094534;28;19908;-40
2022/11/11 14:35:44;;;;;;;;;;;16.30;93.90;;;;;;5094592;28;19912;-41
2022/11/11 14:38:16;;;;;;;;;;;16.30;93.90;;;;;;5094464;28;20239;-40
2022/11/11 14:40:41;;;;;;;;;;;16.30;93.90;;;;;;5094704;28;19962;-40
2022/11/11 14:43:25;;;;;;;;;;;16.30;93.90;;;;;;5094232;28;19916;-41
2022/11/11 14:45:51;;;;;;;;;;;16.30;93.90;;;;;;5094213;28;19912;-40
2022/11/11 14:48:36;;;;;;;;;;;16.30;93.90;;;;;;5094195;28;20434;-40
2022/11/11 14:51:01;;;;;;;;;;;16.30;93.90;;;;;;5094142;28;19912;-40
2022/11/11 14:53:33;;;;;;;;;;;16.30;93.90;;;;;;5094232;28;20342;-40
2022/11/11 14:55:58;;;;;;;;;;;16.20;94.10;;;;;;5094125;28;19912;-40
2022/11/11 14:58:30;;;;;;;;;;;16.20;93.90;;;;;;5092972;28;19912;-40
2022/11/11 15:01:16;;;;;;;;;;;16.20;93.90;;;;;;5092727;28;19912;-41
2022/11/11 15:03:43;;;;;;;;;;;16.20;93.90;;;;;;5089031;28;19919;-40
2022/11/11 15:06:09;;;;;;;;;;;16.20;93.90;;;;;;5092995;28;20010;-40
2022/11/11 15:08:34;;;;;;;;;;;16.20;93.90;;;;;;5092090;28;19979;-41
2022/11/11 15:11:18;;;;;;;;;;;16.20;94.00;;;;;;5092922;28;20420;-40
2022/11/11 15:14:07;;;;;;;;;;;16.20;94.00;;;;;;5083058;28;19908;-40
2022/11/11 15:16:45;;;;;;;;;;;16.20;94.00;;;;;;5076985;28;19916;-42
2022/11/11 15:19:10;;;;;;;;;;;16.20;94.10;;;;;;5074218;28;19911;-40
2022/11/11 15:21:41;;;;;;;;;;;16.20;94.10;;;;;;5093797;28;19998;-40
2022/11/11 15:24:12;;;;;;;;;;;16.20;94.10;;;;;;5094117;28;19970;-40
2022/11/11 15:26:54;;;;;;;;;;;16.20;94.20;;;;;;5091994;28;19969;-43
2022/11/11 15:29:19;;;;;;;;;;;16.20;94.20;;;;;;5093506;28;19904;-40
2022/11/11 15:31:51;;;;;;;;;;;16.20;94.20;;;;;;5093288;28;19987;-39
2022/11/11 15:34:19;;;;;;;;;;;16.20;94.20;;;;;;5093320;28;19945;-39
2022/11/11 15:36:48;;;;;;;;;;;16.20;94.30;;;;;;5092631;28;19957;-39